Address 0xb1a5d4460453747f0106c07838c92743243ac551 1

 
Txn Hash Method
Block
From
To
Value [Txn Fee]
0xba121c3c94c9a94b8fabb02a014d2ae3eb53404caf3b019e17ef97ca84af05d60x1de9c881112577982021-09-26 18:22:041 min ago0xb1a5d4460453747f0106c07838c92743243ac551OUT 0x5f5090dce7617e5f94182fb04a087f563b286ab80 BNB0.000220955
0xb82de7f6a0d80e9abac247d4088ac819d0e6a571f81da65605e77dfbe19ca4060x1de9c881112577382021-09-26 18:18:444 mins ago0xb1a5d4460453747f0106c07838c92743243ac551OUT 0x7fa79b3229408971f6744e8d34503a528fed70cb0 BNB0.00123016
0x1353f119d2078105c1151996110f3a27de125987019f5593503dd6bb14d5cdcc0x1de9c881112576832021-09-26 18:15:577 mins ago0xb1a5d4460453747f0106c07838c92743243ac551OUT 0xc9be651cd20f498d595673916c03f1962eb4c94d0 BNB0.000212325
0x8010ce37208d26b65bb9969c03824d81b0d53d2361184e7bb2e974b5243cdf67Transfer112575262021-09-26 18:08:0615 mins ago0xb1a5d4460453747f0106c07838c92743243ac551SELF0xb1a5d4460453747f0106c07838c92743243ac5510 BNB0.000118881
0x1adc6071a855dd71001254cbb83a62fadc1418f220fc03fbfa8ff47a5619d152Transfer112575102021-09-26 18:07:1815 mins ago0xb1a5d4460453747f0106c07838c92743243ac551SELF0xb1a5d4460453747f0106c07838c92743243ac5510 BNB0.00011655
0x8fbef976fc0b58cf30126758733597ea04f0732fbb7452dbb79df6efde7001480x1de9c881112574822021-09-26 18:05:5417 mins ago0xb1a5d4460453747f0106c07838c92743243ac551OUT 0xd27ccd5ce8f90d2a30c96aa8c68b5c116a978e540 BNB0.000257873
0x9b2cf87e2607f9d53b29686c3402bc8687c0924fbd44649232bcf7a077d3a71eTransfer112574352021-09-26 18:03:3319 mins ago0xb1a5d4460453747f0106c07838c92743243ac551SELF0xb1a5d4460453747f0106c07838c92743243ac5510 BNB0.00011655
0x1183aa0191fbed3b8465491c122fbf3c225319db5987b527891bed47d25269d5Transfer112573702021-09-26 18:00:1822 mins ago0xb1a5d4460453747f0106c07838c92743243ac551SELF0xb1a5d4460453747f0106c07838c92743243ac5510 BNB0.00011655
0xbc21905206b82e1a1688a47026afec969c7865d2f1970a2890ec2fbaf4d6f260Transfer112573022021-09-26 17:56:5426 mins ago0xb1a5d4460453747f0106c07838c92743243ac551SELF0xb1a5d4460453747f0106c07838c92743243ac5510 BNB0.00011655
0x461657650d8cbffad53bb39461163922bbaeed502cee1abf86ad2a81af29f5210x1de9c881112572732021-09-26 17:55:2727 mins ago0xb1a5d4460453747f0106c07838c92743243ac551OUT 0xd27ccd5ce8f90d2a30c96aa8c68b5c116a978e540 BNB0.000221015
0xb19de3914444003ef0fce1fc83ee7f8b218b2d37d008a751ff34e8962f6048190x1de9c881112572652021-09-26 17:55:0328 mins ago0xb1a5d4460453747f0106c07838c92743243ac551OUT 0x5f5090dce7617e5f94182fb04a087f563b286ab80 BNB0.00114011
0x1caee8dbdd4aefaa94892288092d79a1fb94ab45a7827eaa82f6dddb54b712ec0x1de9c881112572322021-09-26 17:53:2429 mins ago0xb1a5d4460453747f0106c07838c92743243ac551OUT 0x5f5090dce7617e5f94182fb04a087f563b286ab80 BNB0.0002212
0x7218b6fedb56dc43a6d7808be39e09f010a9469f0666e2c263eff15570b542c90x1de9c881112572052021-09-26 17:52:0331 mins ago0xb1a5d4460453747f0106c07838c92743243ac551OUT 0xc9be651cd20f498d595673916c03f1962eb4c94d0 BNB0.000184185
0x5f26e92b560b55c60426539c9eccb5315a1ba3e57ffeaefa75fcce39cd156a340x1de9c881112566542021-09-26 17:24:2658 mins ago0xb1a5d4460453747f0106c07838c92743243ac551OUT 0x5f5090dce7617e5f94182fb04a087f563b286ab80 BNB0.000212135
0x0cca03405c687a7a38fbf019fab5389e5785fec31b321fad2ffdc9962d6f9aa10x1de9c881112565442021-09-26 17:18:481 hr 4 mins ago0xb1a5d4460453747f0106c07838c92743243ac551OUT 0x7fa79b3229408971f6744e8d34503a528fed70cb0 BNB0.000184365
0xbc2b0f704bb11b75f587279ca6bc5eed6cf9b28d07230f00b79cd5a7ff0224640x1de9c881112564722021-09-26 17:15:121 hr 7 mins ago0xb1a5d4460453747f0106c07838c92743243ac551OUT 0x7fa79b3229408971f6744e8d34503a528fed70cb0 BNB0.000265146
0xc06132e3c934c42bc6df07aed4d9420e00595eb525c759c0b6ce92ecbe043e3a0x1de9c881112564032021-09-26 17:11:451 hr 11 mins ago0xb1a5d4460453747f0106c07838c92743243ac551OUT 0x5f5090dce7617e5f94182fb04a087f563b286ab80 BNB0.00018437
0x376b17e80f6e20c15991e0b0953ae3e8c1579a5c81379adc6a7d15d8c4f691e30x1de9c881112563382021-09-26 17:08:301 hr 14 mins ago0xb1a5d4460453747f0106c07838c92743243ac551OUT 0x7fa79b3229408971f6744e8d34503a528fed70cb0 BNB0.00022136
0xea7a9d4c0e032cc713a2386bfaaf94ac4630e4b72574afadc7cddd291eb9513cTransfer112562062021-09-26 17:01:541 hr 21 mins ago0xb1a5d4460453747f0106c07838c92743243ac551SELF0xb1a5d4460453747f0106c07838c92743243ac5510 BNB0.00011655
0xd0cdd2a43c4f075e787b729cdd37b39a2effa5e717e15f0542141db96edd36310x1de9c881112561782021-09-26 17:00:301 hr 22 mins ago0xb1a5d4460453747f0106c07838c92743243ac551OUT 0xc9be651cd20f498d595673916c03f1962eb4c94d0 BNB0.00022103
0x66f3526bbebcdc7277b5e2e668136c36f924694f34f06e45846fac4ddeb6ebbe0x1de9c881112561702021-09-26 17:00:021 hr 23 mins ago0xb1a5d4460453747f0106c07838c92743243ac551OUT 0x5f5090dce7617e5f94182fb04a087f563b286ab80 BNB0.00019325
0x8710b8032ca74bd7fde50741f950d682b3675c10a456b60c6cd0404750de05260x1de9c881112561232021-09-26 16:57:321 hr 25 mins ago0xb1a5d4460453747f0106c07838c92743243ac551OUT 0x5f5090dce7617e5f94182fb04a087f563b286ab80 BNB0.00017514
0xf1feea97c2c5c16bbb0670f6b0abbabf391273f174d6c188fa70cec7471371070x1de9c881112561142021-09-26 16:57:051 hr 26 mins ago0xb1a5d4460453747f0106c07838c92743243ac551OUT 0x5f5090dce7617e5f94182fb04a087f563b286ab80 BNB0.000265362
0x0513a591043e4025f205cb8b08b41be5fb5d1c2685cc61cf2c48d158a8d16859Transfer112561072021-09-26 16:56:441 hr 26 mins ago0xb1a5d4460453747f0106c07838c92743243ac551SELF0xb1a5d4460453747f0106c07838c92743243ac5510 BNB0.00011655
0x765dd7ee840b1b59990b34e98f56251b8af6299a71d9923be833aa9ea6d26f36Transfer112559152021-09-26 16:47:081 hr 36 mins ago0xb1a5d4460453747f0106c07838c92743243ac551SELF0xb1a5d4460453747f0106c07838c92743243ac5510 BNB0.00011655
[ Download CSV Export 
Parent Txn Hash Block From To Value
Loading

Contract Name:
0 BNB

Compiler Version
0

Optimization Enabled:
0 BNB

Other Settings:
-NA-
Block Transaction Gas Used Reward
Age Block Fee Address BC Fee Address Voting Power Jailed Incoming
Block Uncle Number Difficulty Gas Used Reward
Loading
Loading
Make sure to use the "Vote Down" button for any spammy posts, and the "Vote Up" for interesting conversations.